sensor_id;sensor_type;location;lat;lon;timestamp;P1;durP1;ratioP1;P2;durP2;ratioP2
1366;SDS011;16877;48.810;9.282;2022-12-16T00:01:03;29.83;;;26.40;;
1366;SDS011;16877;48.810;9.282;2022-12-16T00:03:36;29.37;;;26.03;;
1366;SDS011;16877;48.810;9.282;2022-12-16T00:06:04;29.60;;;26.37;;
1366;SDS011;16877;48.810;9.282;2022-12-16T00:08:33;30.83;;;26.63;;
1366;SDS011;16877;48.810;9.282;2022-12-16T00:11:02;29.87;;;25.93;;
1366;SDS011;16877;48.810;9.282;2022-12-16T00:13:31;30.70;;;27.40;;
1366;SDS011;16877;48.810;9.282;2022-12-16T00:16:02;29.90;;;26.77;;
1366;SDS011;16877;48.810;9.282;2022-12-16T00:18:31;30.93;;;25.33;;
1366;SDS011;16877;48.810;9.282;2022-12-16T00:21:00;28.60;;;25.50;;
1366;SDS011;16877;48.810;9.282;2022-12-16T00:23:28;31.13;;;27.00;;
1366;SDS011;16877;48.810;9.282;2022-12-16T00:26:00;31.43;;;25.97;;
1366;SDS011;16877;48.810;9.282;2022-12-16T00:28:28;27.90;;;24.90;;
1366;SDS011;16877;48.810;9.282;2022-12-16T00:30:56;28.13;;;24.93;;
1366;SDS011;16877;48.810;9.282;2022-12-16T00:33:24;27.03;;;23.87;;
1366;SDS011;16877;48.810;9.282;2022-12-16T00:35:52;30.20;;;25.83;;
1366;SDS011;16877;48.810;9.282;2022-12-16T00:38:23;29.17;;;24.67;;
1366;SDS011;16877;48.810;9.282;2022-12-16T00:40:51;28.73;;;25.67;;
1366;SDS011;16877;48.810;9.282;2022-12-16T00:43:19;26.97;;;24.10;;
1366;SDS011;16877;48.810;9.282;2022-12-16T00:45:48;29.27;;;26.17;;
1366;SDS011;16877;48.810;9.282;2022-12-16T00:48:19;29.00;;;25.57;;
1366;SDS011;16877;48.810;9.282;2022-12-16T00:50:47;28.90;;;25.33;;
1366;SDS011;16877;48.810;9.282;2022-12-16T00:53:15;30.63;;;27.30;;
1366;SDS011;16877;48.810;9.282;2022-12-16T00:55:48;28.33;;;25.23;;
1366;SDS011;16877;48.810;9.282;2022-12-16T00:58:15;27.13;;;24.30;;
1366;SDS011;16877;48.810;9.282;2022-12-16T01:00:43;33.60;;;27.60;;
1366;SDS011;16877;48.810;9.282;2022-12-16T01:03:10;29.40;;;26.30;;
1366;SDS011;16877;48.810;9.282;2022-12-16T01:05:39;29.47;;;26.00;;
1366;SDS011;16877;48.810;9.282;2022-12-16T01:08:06;29.17;;;25.97;;
1366;SDS011;16877;48.810;9.282;2022-12-16T01:10:34;29.43;;;26.23;;
1366;SDS011;16877;48.810;9.282;2022-12-16T01:13:03;29.10;;;25.27;;
1366;SDS011;16877;48.810;9.282;2022-12-16T01:15:31;29.37;;;25.73;;
1366;SDS011;16877;48.810;9.282;2022-12-16T01:17:58;29.83;;;26.03;;
1366;SDS011;16877;48.810;9.282;2022-12-16T01:20:26;27.93;;;24.93;;
1366;SDS011;16877;48.810;9.282;2022-12-16T01:22:54;28.90;;;25.80;;
1366;SDS011;16877;48.810;9.282;2022-12-16T01:25:22;28.30;;;25.30;;
1366;SDS011;16877;48.810;9.282;2022-12-16T01:27:50;28.90;;;25.03;;
1366;SDS011;16877;48.810;9.282;2022-12-16T01:30:19;30.70;;;26.07;;
1366;SDS011;16877;48.810;9.282;2022-12-16T01:32:46;30.60;;;26.33;;
1366;SDS011;16877;48.810;9.282;2022-12-16T01:35:15;30.33;;;26.07;;
1366;SDS011;16877;48.810;9.282;2022-12-16T01:37:44;32.80;;;27.40;;
1366;SDS011;16877;48.810;9.282;2022-12-16T01:40:13;28.63;;;25.47;;
1366;SDS011;16877;48.810;9.282;2022-12-16T01:42:44;28.00;;;24.83;;
1366;SDS011;16877;48.810;9.282;2022-12-16T01:48:11;28.87;;;25.47;;
1366;SDS011;16877;48.810;9.282;2022-12-16T01:50:45;32.43;;;23.83;;
1366;SDS011;16877;48.810;9.282;2022-12-16T01:53:15;32.13;;;28.63;;
1366;SDS011;16877;48.810;9.282;2022-12-16T01:55:43;31.10;;;27.67;;
1366;SDS011;16877;48.810;9.282;2022-12-16T01:58:14;31.80;;;25.83;;
1366;SDS011;16877;48.810;9.282;2022-12-16T02:00:47;32.73;;;28.07;;
1366;SDS011;16877;48.810;9.282;2022-12-16T02:03:16;29.63;;;26.50;;
1366;SDS011;16877;48.810;9.282;2022-12-16T02:05:45;32.63;;;27.63;;
1366;SDS011;16877;48.810;9.282;2022-12-16T02:08:14;27.17;;;24.30;;
1366;SDS011;16877;48.810;9.282;2022-12-16T02:10:46;33.07;;;26.40;;
1366;SDS011;16877;48.810;9.282;2022-12-16T02:13:45;30.70;;;26.00;;
1366;SDS011;16877;48.810;9.282;2022-12-16T02:16:31;29.47;;;26.27;;
1366;SDS011;16877;48.810;9.282;2022-12-16T02:19:08;29.40;;;26.03;;
1366;SDS011;16877;48.810;9.282;2022-12-16T02:21:56;26.33;;;23.57;;
1366;SDS011;16877;48.810;9.282;2022-12-16T02:24:58;29.90;;;25.23;;
1366;SDS011;16877;48.810;9.282;2022-12-16T02:27:54;31.73;;;24.27;;
1366;SDS011;16877;48.810;9.282;2022-12-16T02:30:47;27.47;;;24.37;;
1366;SDS011;16877;48.810;9.282;2022-12-16T02:33:28;29.33;;;26.23;;
1366;SDS011;16877;48.810;9.282;2022-12-16T02:36:10;31.30;;;27.90;;
1366;SDS011;16877;48.810;9.282;2022-12-16T02:38:45;27.90;;;24.93;;
1366;SDS011;16877;48.810;9.282;2022-12-16T02:41:21;32.93;;;28.33;;
1366;SDS011;16877;48.810;9.282;2022-12-16T02:43:55;30.60;;;27.30;;
1366;SDS011;16877;48.810;9.282;2022-12-16T02:46:31;28.10;;;25.00;;
1366;SDS011;16877;48.810;9.282;2022-12-16T02:49:03;30.67;;;25.27;;
1366;SDS011;16877;48.810;9.282;2022-12-16T02:51:32;31.10;;;26.27;;
1366;SDS011;16877;48.810;9.282;2022-12-16T02:54:06;28.40;;;25.17;;
1366;SDS011;16877;48.810;9.282;2022-12-16T02:56:40;33.30;;;25.67;;
1366;SDS011;16877;48.810;9.282;2022-12-16T02:59:19;26.30;;;23.50;;
1366;SDS011;16877;48.810;9.282;2022-12-16T03:01:56;28.83;;;24.60;;
1366;SDS011;16877;48.810;9.282;2022-12-16T03:04:32;28.57;;;24.03;;
1366;SDS011;16877;48.810;9.282;2022-12-16T03:07:03;26.87;;;23.93;;
1366;SDS011;16877;48.810;9.282;2022-12-16T03:09:35;28.63;;;25.63;;
1366;SDS011;16877;48.810;9.282;2022-12-16T03:12:06;27.47;;;24.00;;
1366;SDS011;16877;48.810;9.282;2022-12-16T03:14:42;28.53;;;25.30;;
1366;SDS011;16877;48.810;9.282;2022-12-16T03:17:13;29.17;;;26.03;;
1366;SDS011;16877;48.810;9.282;2022-12-16T03:19:44;31.00;;;25.43;;
1366;SDS011;16877;48.810;9.282;2022-12-16T03:22:16;27.77;;;24.80;;
1366;SDS011;16877;48.810;9.282;2022-12-16T03:24:46;29.90;;;24.80;;
1366;SDS011;16877;48.810;9.282;2022-12-16T03:27:19;29.77;;;26.53;;
1366;SDS011;16877;48.810;9.282;2022-12-16T03:29:52;27.37;;;24.20;;
1366;SDS011;16877;48.810;9.282;2022-12-16T03:32:28;29.83;;;25.50;;
1366;SDS011;16877;48.810;9.282;2022-12-16T03:35:03;30.10;;;25.83;;
1366;SDS011;16877;48.810;9.282;2022-12-16T03:37:39;28.20;;;25.20;;
1366;SDS011;16877;48.810;9.282;2022-12-16T03:40:13;28.50;;;25.10;;
1366;SDS011;16877;48.810;9.282;2022-12-16T03:42:41;30.60;;;27.30;;
1366;SDS011;16877;48.810;9.282;2022-12-16T03:45:11;27.97;;;25.10;;
1366;SDS011;16877;48.810;9.282;2022-12-16T03:47:48;28.30;;;25.30;;
1366;SDS011;16877;48.810;9.282;2022-12-16T03:50:16;29.10;;;26.03;;
1366;SDS011;16877;48.810;9.282;2022-12-16T03:52:49;29.27;;;25.30;;
1366;SDS011;16877;48.810;9.282;2022-12-16T03:55:16;28.47;;;24.60;;
1366;SDS011;16877;48.810;9.282;2022-12-16T03:57:45;25.97;;;23.17;;
1366;SDS011;16877;48.810;9.282;2022-12-16T04:00:14;28.83;;;24.30;;
1366;SDS011;16877;48.810;9.282;2022-12-16T04:02:41;28.03;;;25.03;;
1366;SDS011;16877;48.810;9.282;2022-12-16T04:05:11;26.67;;;22.97;;
1366;SDS011;16877;48.810;9.282;2022-12-16T04:07:39;26.40;;;22.60;;
1366;SDS011;16877;48.810;9.282;2022-12-16T04:10:07;24.70;;;22.00;;
1366;SDS011;16877;48.810;9.282;2022-12-16T04:12:36;25.13;;;22.20;;
1366;SDS011;16877;48.810;9.282;2022-12-16T04:15:20;26.17;;;23.37;;
1366;SDS011;16877;48.810;9.282;2022-12-16T04:18:07;25.50;;;21.63;;
1366;SDS011;16877;48.810;9.282;2022-12-16T04:20:58;26.30;;;22.30;;
1366;SDS011;16877;48.810;9.282;2022-12-16T04:23:44;23.17;;;20.37;;
1366;SDS011;16877;48.810;9.282;2022-12-16T04:26:31;23.33;;;19.87;;
1366;SDS011;16877;48.810;9.282;2022-12-16T04:29:22;23.80;;;21.20;;
1366;SDS011;16877;48.810;9.282;2022-12-16T04:31:54;23.13;;;20.70;;
1366;SDS011;16877;48.810;9.282;2022-12-16T04:34:22;24.73;;;21.10;;
1366;SDS011;16877;48.810;9.282;2022-12-16T04:36:53;23.63;;;21.00;;
1366;SDS011;16877;48.810;9.282;2022-12-16T04:39:38;22.03;;;19.23;;
1366;SDS011;16877;48.810;9.282;2022-12-16T04:42:23;23.80;;;20.20;;
1366;SDS011;16877;48.810;9.282;2022-12-16T04:45:08;21.40;;;19.10;;
1366;SDS011;16877;48.810;9.282;2022-12-16T04:47:58;23.97;;;21.37;;
1366;SDS011;16877;48.810;9.282;2022-12-16T04:50:43;21.67;;;18.70;;
1366;SDS011;16877;48.810;9.282;2022-12-16T04:53:29;22.83;;;18.77;;
1366;SDS011;16877;48.810;9.282;2022-12-16T04:56:14;22.03;;;19.70;;
1366;SDS011;16877;48.810;9.282;2022-12-16T04:58:58;24.47;;;21.83;;
1366;SDS011;16877;48.810;9.282;2022-12-16T05:01:43;24.07;;;21.17;;
1366;SDS011;16877;48.810;9.282;2022-12-16T05:04:28;23.70;;;19.60;;
1366;SDS011;16877;48.810;9.282;2022-12-16T05:07:12;20.93;;;18.73;;
1366;SDS011;16877;48.810;9.282;2022-12-16T05:09:58;21.40;;;19.07;;
1366;SDS011;16877;48.810;9.282;2022-12-16T05:12:47;21.23;;;19.00;;
1366;SDS011;16877;48.810;9.282;2022-12-16T05:15:31;22.10;;;19.80;;
1366;SDS011;16877;48.810;9.282;2022-12-16T05:18:16;22.10;;;19.23;;
1366;SDS011;16877;48.810;9.282;2022-12-16T05:21:06;21.57;;;19.37;;
1366;SDS011;16877;48.810;9.282;2022-12-16T05:23:52;23.70;;;20.20;;
1366;SDS011;16877;48.810;9.282;2022-12-16T05:26:39;21.27;;;19.10;;
1366;SDS011;16877;48.810;9.282;2022-12-16T05:29:24;22.70;;;19.63;;
1366;SDS011;16877;48.810;9.282;2022-12-16T05:32:13;20.17;;;18.00;;
1366;SDS011;16877;48.810;9.282;2022-12-16T05:34:59;22.50;;;19.37;;
1366;SDS011;16877;48.810;9.282;2022-12-16T05:37:48;21.53;;;19.23;;
1366;SDS011;16877;48.810;9.282;2022-12-16T05:40:41;20.97;;;18.67;;
1366;SDS011;16877;48.810;9.282;2022-12-16T05:43:28;20.73;;;18.53;;
1366;SDS011;16877;48.810;9.282;2022-12-16T05:46:21;21.00;;;18.13;;
1366;SDS011;16877;48.810;9.282;2022-12-16T05:49:06;21.13;;;18.73;;
1366;SDS011;16877;48.810;9.282;2022-12-16T05:51:50;21.67;;;19.37;;
1366;SDS011;16877;48.810;9.282;2022-12-16T05:54:39;23.40;;;19.63;;
1366;SDS011;16877;48.810;9.282;2022-12-16T05:57:24;22.07;;;19.80;;
1366;SDS011;16877;48.810;9.282;2022-12-16T06:00:16;21.93;;;19.67;;
1366;SDS011;16877;48.810;9.282;2022-12-16T06:03:05;21.00;;;18.57;;
1366;SDS011;16877;48.810;9.282;2022-12-16T06:05:53;23.10;;;19.87;;
1366;SDS011;16877;48.810;9.282;2022-12-16T06:08:39;21.70;;;19.40;;
1366;SDS011;16877;48.810;9.282;2022-12-16T06:11:24;24.20;;;20.53;;
1366;SDS011;16877;48.810;9.282;2022-12-16T06:14:09;21.30;;;19.00;;
1366;SDS011;16877;48.810;9.282;2022-12-16T06:16:59;20.70;;;18.33;;
1366;SDS011;16877;48.810;9.282;2022-12-16T06:19:44;22.60;;;19.63;;
1366;SDS011;16877;48.810;9.282;2022-12-16T06:22:28;18.90;;;17.00;;
1366;SDS011;16877;48.810;9.282;2022-12-16T06:25:12;19.70;;;17.30;;
1366;SDS011;16877;48.810;9.282;2022-12-16T06:27:57;20.20;;;18.10;;
1366;SDS011;16877;48.810;9.282;2022-12-16T06:30:42;19.77;;;17.67;;
1366;SDS011;16877;48.810;9.282;2022-12-16T06:33:30;19.00;;;16.97;;
1366;SDS011;16877;48.810;9.282;2022-12-16T06:36:22;18.50;;;16.60;;
1366;SDS011;16877;48.810;9.282;2022-12-16T06:39:07;19.50;;;17.40;;
1366;SDS011;16877;48.810;9.282;2022-12-16T06:41:51;19.50;;;17.33;;
1366;SDS011;16877;48.810;9.282;2022-12-16T06:44:37;17.47;;;15.43;;
1366;SDS011;16877;48.810;9.282;2022-12-16T06:47:22;18.07;;;16.00;;
1366;SDS011;16877;48.810;9.282;2022-12-16T06:50:12;18.87;;;16.30;;
1366;SDS011;16877;48.810;9.282;2022-12-16T06:53:07;19.40;;;17.27;;
1366;SDS011;16877;48.810;9.282;2022-12-16T06:55:53;18.40;;;16.03;;
1366;SDS011;16877;48.810;9.282;2022-12-16T06:58:42;18.93;;;16.70;;
1366;SDS011;16877;48.810;9.282;2022-12-16T07:01:27;18.13;;;15.10;;
1366;SDS011;16877;48.810;9.282;2022-12-16T07:04:12;17.80;;;15.53;;
1366;SDS011;16877;48.810;9.282;2022-12-16T07:06:58;17.20;;;15.40;;
1366;SDS011;16877;48.810;9.282;2022-12-16T07:09:42;17.10;;;15.40;;
1366;SDS011;16877;48.810;9.282;2022-12-16T07:12:27;18.80;;;15.57;;
1366;SDS011;16877;48.810;9.282;2022-12-16T07:15:12;19.63;;;16.23;;
1366;SDS011;16877;48.810;9.282;2022-12-16T07:17:56;18.47;;;16.57;;
1366;SDS011;16877;48.810;9.282;2022-12-16T07:20:41;18.10;;;15.33;;
1366;SDS011;16877;48.810;9.282;2022-12-16T07:23:27;12.90;;;11.60;;
1366;SDS011;16877;48.810;9.282;2022-12-16T07:26:22;6.10;;;5.50;;
1366;SDS011;16877;48.810;9.282;2022-12-16T07:29:07;6.73;;;6.03;;
1366;SDS011;16877;48.810;9.282;2022-12-16T07:31:51;7.47;;;6.07;;
1366;SDS011;16877;48.810;9.282;2022-12-16T07:34:36;9.83;;;6.30;;
1366;SDS011;16877;48.810;9.282;2022-12-16T07:37:22;7.57;;;6.77;;
1366;SDS011;16877;48.810;9.282;2022-12-16T07:43:15;10.97;;;9.33;;
1366;SDS011;16877;48.810;9.282;2022-12-16T07:46:04;12.07;;;10.87;;
1366;SDS011;16877;48.810;9.282;2022-12-16T07:48:49;14.57;;;12.30;;
1366;SDS011;16877;48.810;9.282;2022-12-16T07:51:38;14.83;;;12.33;;
1366;SDS011;16877;48.810;9.282;2022-12-16T07:54:23;16.57;;;13.80;;
1366;SDS011;16877;48.810;9.282;2022-12-16T07:57:15;16.27;;;13.50;;
1366;SDS011;16877;48.810;9.282;2022-12-16T08:00:01;13.67;;;11.80;;
1366;SDS011;16877;48.810;9.282;2022-12-16T08:02:53;14.13;;;12.63;;
1366;SDS011;16877;48.810;9.282;2022-12-16T08:05:39;12.50;;;11.03;;
1366;SDS011;16877;48.810;9.282;2022-12-16T08:08:35;13.60;;;12.20;;
1366;SDS011;16877;48.810;9.282;2022-12-16T08:11:25;16.47;;;14.03;;
1366;SDS011;16877;48.810;9.282;2022-12-16T08:14:13;18.13;;;16.17;;
1366;SDS011;16877;48.810;9.282;2022-12-16T08:16:58;16.10;;;14.40;;
1366;SDS011;16877;48.810;9.282;2022-12-16T08:19:53;19.40;;;17.00;;
1366;SDS011;16877;48.810;9.282;2022-12-16T08:22:38;17.80;;;16.00;;
1366;SDS011;16877;48.810;9.282;2022-12-16T08:25:23;17.73;;;15.77;;
1366;SDS011;16877;48.810;9.282;2022-12-16T08:28:07;18.53;;;15.70;;
1366;SDS011;16877;48.810;9.282;2022-12-16T08:30:54;16.10;;;14.33;;
1366;SDS011;16877;48.810;9.282;2022-12-16T08:33:38;17.30;;;15.53;;
1366;SDS011;16877;48.810;9.282;2022-12-16T08:36:27;19.23;;;17.23;;
1366;SDS011;16877;48.810;9.282;2022-12-16T08:39:11;17.90;;;16.00;;
1366;SDS011;16877;48.810;9.282;2022-12-16T08:41:56;16.57;;;14.50;;
1366;SDS011;16877;48.810;9.282;2022-12-16T08:44:41;18.30;;;16.20;;
1366;SDS011;16877;48.810;9.282;2022-12-16T08:47:29;18.03;;;15.97;;
1366;SDS011;16877;48.810;9.282;2022-12-16T08:50:20;18.33;;;15.00;;
1366;SDS011;16877;48.810;9.282;2022-12-16T08:53:15;16.93;;;15.03;;
1366;SDS011;16877;48.810;9.282;2022-12-16T08:55:59;18.43;;;14.50;;
1366;SDS011;16877;48.810;9.282;2022-12-16T08:58:44;17.80;;;14.90;;
1366;SDS011;16877;48.810;9.282;2022-12-16T09:01:28;17.43;;;15.10;;
1366;SDS011;16877;48.810;9.282;2022-12-16T09:04:14;16.60;;;14.00;;
1366;SDS011;16877;48.810;9.282;2022-12-16T09:06:59;18.50;;;15.50;;
1366;SDS011;16877;48.810;9.282;2022-12-16T09:09:44;17.03;;;14.90;;
1366;SDS011;16877;48.810;9.282;2022-12-16T09:12:29;16.30;;;14.60;;
1366;SDS011;16877;48.810;9.282;2022-12-16T09:15:13;15.43;;;13.83;;
1366;SDS011;16877;48.810;9.282;2022-12-16T09:17:58;17.87;;;14.80;;
1366;SDS011;16877;48.810;9.282;2022-12-16T09:20:44;17.93;;;15.60;;
1366;SDS011;16877;48.810;9.282;2022-12-16T09:23:28;17.73;;;14.93;;
1366;SDS011;16877;48.810;9.282;2022-12-16T09:26:27;16.20;;;14.50;;
1366;SDS011;16877;48.810;9.282;2022-12-16T09:29:12;16.13;;;14.43;;
1366;SDS011;16877;48.810;9.282;2022-12-16T09:32:01;15.87;;;14.17;;
1366;SDS011;16877;48.810;9.282;2022-12-16T09:34:46;15.13;;;13.53;;
1366;SDS011;16877;48.810;9.282;2022-12-16T09:37:32;15.53;;;13.03;;
1366;SDS011;16877;48.810;9.282;2022-12-16T09:40:16;15.13;;;13.53;;
1366;SDS011;16877;48.810;9.282;2022-12-16T09:43:02;17.70;;;14.50;;
1366;SDS011;16877;48.810;9.282;2022-12-16T09:45:57;15.97;;;13.80;;
1366;SDS011;16877;48.810;9.282;2022-12-16T09:48:49;17.17;;;15.37;;
1366;SDS011;16877;48.810;9.282;2022-12-16T09:51:40;17.47;;;15.47;;
1366;SDS011;16877;48.810;9.282;2022-12-16T09:54:30;17.00;;;14.90;;
1366;SDS011;16877;48.810;9.282;2022-12-16T09:57:18;16.80;;;15.13;;
1366;SDS011;16877;48.810;9.282;2022-12-16T10:00:04;16.60;;;14.13;;
1366;SDS011;16877;48.810;9.282;2022-12-16T10:02:51;17.00;;;14.80;;
1366;SDS011;16877;48.810;9.282;2022-12-16T10:05:44;16.13;;;14.40;;
1366;SDS011;16877;48.810;9.282;2022-12-16T10:08:38;15.10;;;13.20;;
1366;SDS011;16877;48.810;9.282;2022-12-16T10:11:32;15.90;;;14.17;;
1366;SDS011;16877;48.810;9.282;2022-12-16T10:14:27;15.43;;;13.70;;
1366;SDS011;16877;48.810;9.282;2022-12-16T10:17:16;17.60;;;13.77;;
1366;SDS011;16877;48.810;9.282;2022-12-16T10:20:06;14.13;;;12.37;;
1366;SDS011;16877;48.810;9.282;2022-12-16T10:22:59;17.17;;;13.50;;
1366;SDS011;16877;48.810;9.282;2022-12-16T10:25:48;17.77;;;14.67;;
1366;SDS011;16877;48.810;9.282;2022-12-16T10:28:45;15.37;;;13.77;;
1366;SDS011;16877;48.810;9.282;2022-12-16T10:31:31;16.33;;;14.00;;
1366;SDS011;16877;48.810;9.282;2022-12-16T10:34:34;15.43;;;13.80;;
1366;SDS011;16877;48.810;9.282;2022-12-16T10:37:20;17.10;;;13.67;;
1366;SDS011;16877;48.810;9.282;2022-12-16T10:40:14;16.20;;;14.27;;
1366;SDS011;16877;48.810;9.282;2022-12-16T10:43:01;13.03;;;11.47;;
1366;SDS011;16877;48.810;9.282;2022-12-16T10:45:50;14.70;;;12.60;;
1366;SDS011;16877;48.810;9.282;2022-12-16T10:48:36;13.87;;;12.43;;
1366;SDS011;16877;48.810;9.282;2022-12-16T10:51:22;14.93;;;12.93;;
1366;SDS011;16877;48.810;9.282;2022-12-16T10:57:17;17.40;;;13.47;;
1366;SDS011;16877;48.810;9.282;2022-12-16T11:00:11;13.00;;;11.60;;
1366;SDS011;16877;48.810;9.282;2022-12-16T11:06:22;14.97;;;12.33;;
1366;SDS011;16877;48.810;9.282;2022-12-16T11:09:24;14.33;;;12.83;;
1366;SDS011;16877;48.810;9.282;2022-12-16T11:12:21;7.90;;;6.07;;
1366;SDS011;16877;48.810;9.282;2022-12-16T11:15:17;10.23;;;8.07;;
1366;SDS011;16877;48.810;9.282;2022-12-16T11:18:15;11.80;;;10.57;;
1366;SDS011;16877;48.810;9.282;2022-12-16T11:21:08;12.80;;;10.70;;
1366;SDS011;16877;48.810;9.282;2022-12-16T11:24:12;12.30;;;11.00;;
1366;SDS011;16877;48.810;9.282;2022-12-16T11:26:59;14.23;;;12.10;;
1366;SDS011;16877;48.810;9.282;2022-12-16T11:29:48;12.93;;;11.63;;
1366;SDS011;16877;48.810;9.282;2022-12-16T11:35:37;14.63;;;13.03;;
1366;SDS011;16877;48.810;9.282;2022-12-16T11:38:27;16.33;;;12.80;;
1366;SDS011;16877;48.810;9.282;2022-12-16T11:41:24;14.93;;;12.50;;
1366;SDS011;16877;48.810;9.282;2022-12-16T11:44:15;15.03;;;12.83;;
1366;SDS011;16877;48.810;9.282;2022-12-16T11:47:03;14.80;;;13.30;;
1366;SDS011;16877;48.810;9.282;2022-12-16T11:49:55;14.53;;;12.40;;
1366;SDS011;16877;48.810;9.282;2022-12-16T11:52:42;17.07;;;13.33;;
1366;SDS011;16877;48.810;9.282;2022-12-16T11:55:38;13.83;;;12.43;;
1366;SDS011;16877;48.810;9.282;2022-12-16T11:58:28;17.17;;;13.10;;
1366;SDS011;16877;48.810;9.282;2022-12-16T12:01:19;15.07;;;13.43;;
1366;SDS011;16877;48.810;9.282;2022-12-16T12:04:08;13.57;;;12.13;;
1366;SDS011;16877;48.810;9.282;2022-12-16T12:06:59;14.13;;;12.63;;
1366;SDS011;16877;48.810;9.282;2022-12-16T12:10:13;13.70;;;12.20;;
1366;SDS011;16877;48.810;9.282;2022-12-16T12:13:14;13.47;;;11.70;;
1366;SDS011;16877;48.810;9.282;2022-12-16T12:16:24;14.17;;;11.20;;
1366;SDS011;16877;48.810;9.282;2022-12-16T12:19:17;13.93;;;11.97;;
1366;SDS011;16877;48.810;9.282;2022-12-16T12:22:06;15.00;;;12.50;;
1366;SDS011;16877;48.810;9.282;2022-12-16T12:24:58;13.70;;;12.20;;
1366;SDS011;16877;48.810;9.282;2022-12-16T12:27:50;14.97;;;11.63;;
1366;SDS011;16877;48.810;9.282;2022-12-16T12:30:47;13.17;;;11.77;;
1366;SDS011;16877;48.810;9.282;2022-12-16T12:33:39;13.10;;;9.30;;
1366;SDS011;16877;48.810;9.282;2022-12-16T12:36:30;11.60;;;9.93;;
1366;SDS011;16877;48.810;9.282;2022-12-16T12:39:21;11.87;;;10.67;;
1366;SDS011;16877;48.810;9.282;2022-12-16T12:42:18;11.90;;;10.67;;
1366;SDS011;16877;48.810;9.282;2022-12-16T12:45:15;14.30;;;11.63;;
1366;SDS011;16877;48.810;9.282;2022-12-16T12:48:13;14.43;;;11.50;;
1366;SDS011;16877;48.810;9.282;2022-12-16T12:51:04;12.30;;;10.80;;
1366;SDS011;16877;48.810;9.282;2022-12-16T12:53:56;12.53;;;11.23;;
1366;SDS011;16877;48.810;9.282;2022-12-16T12:56:50;12.03;;;10.80;;
1366;SDS011;16877;48.810;9.282;2022-12-16T12:59:40;13.97;;;10.47;;
1366;SDS011;16877;48.810;9.282;2022-12-16T13:02:34;12.23;;;10.00;;
1366;SDS011;16877;48.810;9.282;2022-12-16T13:05:30;12.80;;;11.40;;
1366;SDS011;16877;48.810;9.282;2022-12-16T13:08:30;12.23;;;11.00;;
1366;SDS011;16877;48.810;9.282;2022-12-16T13:11:26;13.67;;;11.50;;
1366;SDS011;16877;48.810;9.282;2022-12-16T13:20:59;13.60;;;11.20;;
1366;SDS011;16877;48.810;9.282;2022-12-16T13:23:45;13.90;;;12.37;;
1366;SDS011;16877;48.810;9.282;2022-12-16T13:26:30;11.00;;;9.90;;
1366;SDS011;16877;48.810;9.282;2022-12-16T13:29:18;14.53;;;12.00;;
1366;SDS011;16877;48.810;9.282;2022-12-16T13:32:14;13.50;;;11.63;;
1366;SDS011;16877;48.810;9.282;2022-12-16T13:35:00;12.77;;;11.00;;
1366;SDS011;16877;48.810;9.282;2022-12-16T13:37:51;12.90;;;11.17;;
1366;SDS011;16877;48.810;9.282;2022-12-16T13:40:47;16.90;;;12.70;;
1366;SDS011;16877;48.810;9.282;2022-12-16T13:43:43;15.20;;;13.60;;
1366;SDS011;16877;48.810;9.282;2022-12-16T13:46:41;13.77;;;12.23;;
1366;SDS011;16877;48.810;9.282;2022-12-16T13:49:40;15.47;;;12.73;;
1366;SDS011;16877;48.810;9.282;2022-12-16T13:52:29;13.87;;;11.90;;
1366;SDS011;16877;48.810;9.282;2022-12-16T13:55:23;15.10;;;13.47;;
1366;SDS011;16877;48.810;9.282;2022-12-16T13:58:13;14.50;;;11.83;;
1366;SDS011;16877;48.810;9.282;2022-12-16T14:01:05;14.90;;;13.30;;
1366;SDS011;16877;48.810;9.282;2022-12-16T14:03:54;15.63;;;14.00;;
1366;SDS011;16877;48.810;9.282;2022-12-16T14:06:44;15.67;;;13.50;;
1366;SDS011;16877;48.810;9.282;2022-12-16T14:09:31;15.30;;;13.10;;
1366;SDS011;16877;48.810;9.282;2022-12-16T14:15:46;14.90;;;13.00;;
1366;SDS011;16877;48.810;9.282;2022-12-16T14:18:40;16.17;;;12.63;;
1366;SDS011;16877;48.810;9.282;2022-12-16T14:21:33;15.67;;;14.00;;
1366;SDS011;16877;48.810;9.282;2022-12-16T14:24:23;15.43;;;13.70;;
1366;SDS011;16877;48.810;9.282;2022-12-16T14:27:11;15.00;;;13.33;;
1366;SDS011;16877;48.810;9.282;2022-12-16T14:29:59;13.83;;;12.37;;
1366;SDS011;16877;48.810;9.282;2022-12-16T14:32:44;15.07;;;13.13;;
1366;SDS011;16877;48.810;9.282;2022-12-16T14:35:29;15.80;;;12.33;;
1366;SDS011;16877;48.810;9.282;2022-12-16T14:38:23;14.07;;;12.43;;
1366;SDS011;16877;48.810;9.282;2022-12-16T14:41:10;15.90;;;14.20;;
1366;SDS011;16877;48.810;9.282;2022-12-16T14:44:04;15.10;;;13.30;;
1366;SDS011;16877;48.810;9.282;2022-12-16T14:46:59;14.30;;;12.10;;
1366;SDS011;16877;48.810;9.282;2022-12-16T14:49:47;15.40;;;13.33;;
1366;SDS011;16877;48.810;9.282;2022-12-16T14:52:33;15.13;;;13.40;;
1366;SDS011;16877;48.810;9.282;2022-12-16T14:55:19;15.70;;;12.87;;
1366;SDS011;16877;48.810;9.282;2022-12-16T14:58:09;13.67;;;12.37;;
1366;SDS011;16877;48.810;9.282;2022-12-16T15:00:55;14.20;;;11.67;;
1366;SDS011;16877;48.810;9.282;2022-12-16T15:03:45;14.80;;;12.57;;
1366;SDS011;16877;48.810;9.282;2022-12-16T15:06:35;14.57;;;13.00;;
1366;SDS011;16877;48.810;9.282;2022-12-16T15:09:24;13.27;;;11.97;;
1366;SDS011;16877;48.810;9.282;2022-12-16T15:12:12;13.73;;;12.13;;
1366;SDS011;16877;48.810;9.282;2022-12-16T15:15:02;11.63;;;10.43;;
1366;SDS011;16877;48.810;9.282;2022-12-16T15:17:51;14.47;;;12.97;;
1366;SDS011;16877;48.810;9.282;2022-12-16T15:20:40;13.90;;;12.40;;
1366;SDS011;16877;48.810;9.282;2022-12-16T15:23:30;12.70;;;11.40;;
1366;SDS011;16877;48.810;9.282;2022-12-16T15:26:17;12.93;;;11.57;;
1366;SDS011;16877;48.810;9.282;2022-12-16T15:29:01;16.47;;;13.27;;
1366;SDS011;16877;48.810;9.282;2022-12-16T15:31:54;14.00;;;11.07;;
1366;SDS011;16877;48.810;9.282;2022-12-16T15:34:44;12.00;;;10.67;;
1366;SDS011;16877;48.810;9.282;2022-12-16T15:37:34;12.57;;;11.27;;
1366;SDS011;16877;48.810;9.282;2022-12-16T15:40:22;13.20;;;11.80;;
1366;SDS011;16877;48.810;9.282;2022-12-16T15:43:26;12.87;;;11.47;;
1366;SDS011;16877;48.810;9.282;2022-12-16T15:46:15;12.77;;;11.23;;
1366;SDS011;16877;48.810;9.282;2022-12-16T15:49:01;13.90;;;11.83;;
1366;SDS011;16877;48.810;9.282;2022-12-16T15:51:47;13.00;;;11.67;;
1366;SDS011;16877;48.810;9.282;2022-12-16T15:54:47;13.33;;;11.87;;
1366;SDS011;16877;48.810;9.282;2022-12-16T15:57:34;15.10;;;12.80;;
1366;SDS011;16877;48.810;9.282;2022-12-16T16:00:21;13.03;;;11.60;;
1366;SDS011;16877;48.810;9.282;2022-12-16T16:03:17;13.40;;;11.63;;
1366;SDS011;16877;48.810;9.282;2022-12-16T16:06:06;13.10;;;11.80;;
1366;SDS011;16877;48.810;9.282;2022-12-16T16:09:00;12.77;;;11.37;;
1366;SDS011;16877;48.810;9.282;2022-12-16T16:11:51;14.20;;;11.43;;
1366;SDS011;16877;48.810;9.282;2022-12-16T16:14:36;13.50;;;11.27;;
1366;SDS011;16877;48.810;9.282;2022-12-16T16:17:21;13.07;;;11.57;;
1366;SDS011;16877;48.810;9.282;2022-12-16T16:20:08;13.90;;;12.53;;
1366;SDS011;16877;48.810;9.282;2022-12-16T16:22:57;13.23;;;11.83;;
1366;SDS011;16877;48.810;9.282;2022-12-16T16:25:42;15.37;;;13.77;;
1366;SDS011;16877;48.810;9.282;2022-12-16T16:28:33;15.00;;;13.40;;
1366;SDS011;16877;48.810;9.282;2022-12-16T16:31:22;13.07;;;11.23;;
1366;SDS011;16877;48.810;9.282;2022-12-16T16:34:07;14.40;;;12.10;;
1366;SDS011;16877;48.810;9.282;2022-12-16T16:36:52;10.27;;;8.63;;
1366;SDS011;16877;48.810;9.282;2022-12-16T16:39:37;11.70;;;10.30;;
1366;SDS011;16877;48.810;9.282;2022-12-16T16:42:22;11.90;;;6.43;;